Yantic, Connecticut
Current Conditions -  °F | °C
As of 12:52 PM on Sunday 21 Dec 2014 (Local Time) from KIJD Reporting Station
Haze Haze  
Wind Chill: 31°   Ceiling: 1200
Heat Index: 35°   Visibility: 6mi
Dew Point: 31°   Wind: 5mph
Humidity: 85%   Direction: 40°NE
Pressure: 30.27"   Gusts: NA
Location:  41.56°N, 72.12°W
Report Text: KIJD 211752Z AUTO 04004KT 6SM BR OVC012 02/M01 A3027 RMK AO2 SNE49 SLP253 P0000 60001 I6000 T00171006 10017 20000 56013
Loading
Personal Weather Stations






























Interactive Weather Map New forecast layout! Learn more

10-Day Weather Forecast

Advertisements
Track Severe Weather on mobile